Terminal Aerodrome Forecast
Issued by NWS

Home | Current Version | Previous Version | Text Only | Print | Product List | Glossary On
Versions: 1 2 3 4 5 6 7 8 9 10 11 12 13 14 15 16 17 18 19 20 21 22 23 24 25 26 27 28 29 30 31 32 33 34
000
FTAK31 PANC 230537
TAFADL
TAF
PADL 230537Z 2306/2406 18008KT P6SM FEW020 OVC090
      TEMPO 2306/2310 BKN015 OVC040
     FM231000 19005KT P6SM BKN012 OVC020
     FM232100 19006KT P6SM FEW020 BKN050=

USA.gov is the U.S. government's official web portal to all federal, state and local government web resources and services.